sensor_id;sensor_type;location;lat;lon;timestamp;P1;durP1;ratioP1;P2;durP2;ratioP2
29730;SDS011;16639;51.488;0.152;2023-04-23T00:00:43;15.70;;;9.95;;
29730;SDS011;16639;51.488;0.152;2023-04-23T00:03:12;20.83;;;9.45;;
29730;SDS011;16639;51.488;0.152;2023-04-23T00:05:44;13.52;;;9.00;;
29730;SDS011;16639;51.488;0.152;2023-04-23T00:08:46;14.40;;;8.43;;
29730;SDS011;16639;51.488;0.152;2023-04-23T00:12:34;11.80;;;7.95;;
29730;SDS011;16639;51.488;0.152;2023-04-23T00:15:14;17.95;;;6.60;;
29730;SDS011;16639;51.488;0.152;2023-04-23T00:17:59;13.63;;;6.25;;
29730;SDS011;16639;51.488;0.152;2023-04-23T00:20:33;12.32;;;6.47;;
29730;SDS011;16639;51.488;0.152;2023-04-23T00:23:01;16.73;;;6.15;;
29730;SDS011;16639;51.488;0.152;2023-04-23T00:25:28;8.90;;;5.03;;
29730;SDS011;16639;51.488;0.152;2023-04-23T00:27:55;11.25;;;5.13;;
29730;SDS011;16639;51.488;0.152;2023-04-23T00:30:23;11.48;;;4.75;;
29730;SDS011;16639;51.488;0.152;2023-04-23T00:32:50;10.95;;;4.75;;
29730;SDS011;16639;51.488;0.152;2023-04-23T00:35:18;9.48;;;4.18;;
29730;SDS011;16639;51.488;0.152;2023-04-23T00:37:46;9.75;;;4.10;;
29730;SDS011;16639;51.488;0.152;2023-04-23T00:40:14;10.40;;;4.07;;
29730;SDS011;16639;51.488;0.152;2023-04-23T00:42:41;12.35;;;4.38;;
29730;SDS011;16639;51.488;0.152;2023-04-23T00:45:10;8.77;;;4.03;;
29730;SDS011;16639;51.488;0.152;2023-04-23T00:47:39;18.33;;;3.95;;
29730;SDS011;16639;51.488;0.152;2023-04-23T00:50:06;11.93;;;3.70;;
29730;SDS011;16639;51.488;0.152;2023-04-23T00:52:34;8.63;;;3.33;;
29730;SDS011;16639;51.488;0.152;2023-04-23T00:55:01;13.02;;;3.47;;
29730;SDS011;16639;51.488;0.152;2023-04-23T00:57:29;18.95;;;4.18;;
29730;SDS011;16639;51.488;0.152;2023-04-23T00:59:56;8.20;;;2.85;;
29730;SDS011;16639;51.488;0.152;2023-04-23T01:02:25;12.52;;;2.72;;
29730;SDS011;16639;51.488;0.152;2023-04-23T01:04:54;10.60;;;2.28;;
29730;SDS011;16639;51.488;0.152;2023-04-23T01:07:22;8.23;;;2.58;;
29730;SDS011;16639;51.488;0.152;2023-04-23T01:09:49;12.20;;;2.67;;
29730;SDS011;16639;51.488;0.152;2023-04-23T01:12:17;5.82;;;3.10;;
29730;SDS011;16639;51.488;0.152;2023-04-23T01:14:44;9.30;;;2.97;;
29730;SDS011;16639;51.488;0.152;2023-04-23T01:17:12;9.65;;;3.20;;
29730;SDS011;16639;51.488;0.152;2023-04-23T01:19:40;8.82;;;3.42;;
29730;SDS011;16639;51.488;0.152;2023-04-23T01:22:14;10.05;;;2.60;;
29730;SDS011;16639;51.488;0.152;2023-04-23T01:24:42;10.35;;;3.00;;
29730;SDS011;16639;51.488;0.152;2023-04-23T01:27:10;10.07;;;3.00;;
29730;SDS011;16639;51.488;0.152;2023-04-23T01:29:38;6.97;;;3.42;;
29730;SDS011;16639;51.488;0.152;2023-04-23T01:32:06;12.35;;;3.25;;
29730;SDS011;16639;51.488;0.152;2023-04-23T01:34:34;12.75;;;3.22;;
29730;SDS011;16639;51.488;0.152;2023-04-23T01:37:02;16.65;;;3.97;;
29730;SDS011;16639;51.488;0.152;2023-04-23T01:39:30;16.00;;;3.80;;
29730;SDS011;16639;51.488;0.152;2023-04-23T01:41:58;13.93;;;3.47;;
29730;SDS011;16639;51.488;0.152;2023-04-23T01:44:27;12.32;;;3.80;;
29730;SDS011;16639;51.488;0.152;2023-04-23T01:46:54;12.77;;;3.30;;
29730;SDS011;16639;51.488;0.152;2023-04-23T01:49:23;9.82;;;4.00;;
29730;SDS011;16639;51.488;0.152;2023-04-23T01:51:50;15.30;;;4.95;;
29730;SDS011;16639;51.488;0.152;2023-04-23T01:54:18;11.55;;;3.40;;
29730;SDS011;16639;51.488;0.152;2023-04-23T01:56:45;13.75;;;4.03;;
29730;SDS011;16639;51.488;0.152;2023-04-23T01:59:13;11.90;;;3.95;;
29730;SDS011;16639;51.488;0.152;2023-04-23T02:01:42;19.23;;;3.75;;
29730;SDS011;16639;51.488;0.152;2023-04-23T02:04:13;13.90;;;3.22;;
29730;SDS011;16639;51.488;0.152;2023-04-23T02:06:43;15.38;;;3.50;;
29730;SDS011;16639;51.488;0.152;2023-04-23T02:09:13;10.05;;;3.65;;
29730;SDS011;16639;51.488;0.152;2023-04-23T02:11:41;9.55;;;3.33;;
29730;SDS011;16639;51.488;0.152;2023-04-23T02:14:09;8.90;;;3.00;;
29730;SDS011;16639;51.488;0.152;2023-04-23T02:16:37;8.48;;;3.30;;
29730;SDS011;16639;51.488;0.152;2023-04-23T02:19:05;8.85;;;3.05;;
29730;SDS011;16639;51.488;0.152;2023-04-23T02:21:32;12.43;;;4.07;;
29730;SDS011;16639;51.488;0.152;2023-04-23T02:24:00;12.55;;;3.53;;
29730;SDS011;16639;51.488;0.152;2023-04-23T02:26:27;7.75;;;2.58;;
29730;SDS011;16639;51.488;0.152;2023-04-23T02:28:56;10.38;;;2.53;;
29730;SDS011;16639;51.488;0.152;2023-04-23T02:31:23;13.75;;;2.80;;
29730;SDS011;16639;51.488;0.152;2023-04-23T02:33:51;7.20;;;2.40;;
29730;SDS011;16639;51.488;0.152;2023-04-23T02:36:18;9.38;;;2.80;;
29730;SDS011;16639;51.488;0.152;2023-04-23T02:38:46;8.30;;;2.95;;
29730;SDS011;16639;51.488;0.152;2023-04-23T02:41:14;7.75;;;2.65;;
29730;SDS011;16639;51.488;0.152;2023-04-23T02:43:42;8.48;;;2.30;;
29730;SDS011;16639;51.488;0.152;2023-04-23T02:46:09;11.05;;;3.47;;
29730;SDS011;16639;51.488;0.152;2023-04-23T02:48:40;12.25;;;3.05;;
29730;SDS011;16639;51.488;0.152;2023-04-23T02:51:09;11.77;;;2.58;;
29730;SDS011;16639;51.488;0.152;2023-04-23T02:53:37;11.07;;;3.97;;
29730;SDS011;16639;51.488;0.152;2023-04-23T02:56:06;13.63;;;3.53;;
29730;SDS011;16639;51.488;0.152;2023-04-23T02:58:34;14.05;;;3.20;;
29730;SDS011;16639;51.488;0.152;2023-04-23T03:01:02;19.30;;;3.78;;
29730;SDS011;16639;51.488;0.152;2023-04-23T03:03:30;26.83;;;3.78;;
29730;SDS011;16639;51.488;0.152;2023-04-23T03:05:59;15.48;;;3.58;;
29730;SDS011;16639;51.488;0.152;2023-04-23T03:08:27;17.73;;;4.70;;
29730;SDS011;16639;51.488;0.152;2023-04-23T03:10:54;16.98;;;4.10;;
29730;SDS011;16639;51.488;0.152;2023-04-23T03:13:22;9.90;;;3.10;;
29730;SDS011;16639;51.488;0.152;2023-04-23T03:15:50;14.98;;;3.53;;
29730;SDS011;16639;51.488;0.152;2023-04-23T03:18:18;12.02;;;3.90;;
29730;SDS011;16639;51.488;0.152;2023-04-23T03:20:47;16.70;;;3.70;;
29730;SDS011;16639;51.488;0.152;2023-04-23T03:23:14;10.80;;;3.75;;
29730;SDS011;16639;51.488;0.152;2023-04-23T03:25:43;10.75;;;3.10;;
29730;SDS011;16639;51.488;0.152;2023-04-23T03:28:10;11.55;;;3.67;;
29730;SDS011;16639;51.488;0.152;2023-04-23T03:30:38;20.70;;;3.72;;
29730;SDS011;16639;51.488;0.152;2023-04-23T03:33:05;10.10;;;3.03;;
29730;SDS011;16639;51.488;0.152;2023-04-23T03:35:33;11.73;;;2.83;;
29730;SDS011;16639;51.488;0.152;2023-04-23T03:38:00;11.18;;;3.13;;
29730;SDS011;16639;51.488;0.152;2023-04-23T03:40:28;9.82;;;3.67;;
29730;SDS011;16639;51.488;0.152;2023-04-23T03:42:55;10.32;;;2.85;;
29730;SDS011;16639;51.488;0.152;2023-04-23T03:45:24;11.40;;;3.47;;
29730;SDS011;16639;51.488;0.152;2023-04-23T03:47:51;17.75;;;3.80;;
29730;SDS011;16639;51.488;0.152;2023-04-23T03:50:19;8.60;;;2.42;;
29730;SDS011;16639;51.488;0.152;2023-04-23T03:52:46;12.35;;;2.42;;
29730;SDS011;16639;51.488;0.152;2023-04-23T03:55:14;8.57;;;3.10;;
29730;SDS011;16639;51.488;0.152;2023-04-23T03:57:41;17.90;;;3.33;;
29730;SDS011;16639;51.488;0.152;2023-04-23T04:00:09;8.85;;;3.60;;
29730;SDS011;16639;51.488;0.152;2023-04-23T04:02:37;13.93;;;3.28;;
29730;SDS011;16639;51.488;0.152;2023-04-23T04:05:06;10.65;;;2.72;;
29730;SDS011;16639;51.488;0.152;2023-04-23T04:07:35;14.00;;;3.10;;
29730;SDS011;16639;51.488;0.152;2023-04-23T04:10:04;9.90;;;2.80;;
29730;SDS011;16639;51.488;0.152;2023-04-23T04:12:32;15.05;;;3.28;;
29730;SDS011;16639;51.488;0.152;2023-04-23T04:14:59;9.43;;;2.90;;
29730;SDS011;16639;51.488;0.152;2023-04-23T04:17:28;17.55;;;3.50;;
29730;SDS011;16639;51.488;0.152;2023-04-23T04:19:56;11.05;;;2.70;;
29730;SDS011;16639;51.488;0.152;2023-04-23T04:22:23;6.60;;;2.72;;
29730;SDS011;16639;51.488;0.152;2023-04-23T04:24:51;12.52;;;3.17;;
29730;SDS011;16639;51.488;0.152;2023-04-23T04:27:20;17.85;;;3.45;;
29730;SDS011;16639;51.488;0.152;2023-04-23T04:29:47;15.63;;;4.60;;
29730;SDS011;16639;51.488;0.152;2023-04-23T04:32:15;14.90;;;4.43;;
29730;SDS011;16639;51.488;0.152;2023-04-23T04:34:42;15.35;;;3.90;;
29730;SDS011;16639;51.488;0.152;2023-04-23T04:37:10;13.68;;;3.63;;
29730;SDS011;16639;51.488;0.152;2023-04-23T04:39:37;17.60;;;3.15;;
29730;SDS011;16639;51.488;0.152;2023-04-23T04:42:04;9.57;;;3.55;;
29730;SDS011;16639;51.488;0.152;2023-04-23T04:44:33;11.88;;;3.40;;
29730;SDS011;16639;51.488;0.152;2023-04-23T04:47:03;11.20;;;3.85;;
29730;SDS011;16639;51.488;0.152;2023-04-23T04:49:34;14.65;;;3.13;;
29730;SDS011;16639;51.488;0.152;2023-04-23T04:52:01;12.82;;;3.25;;
29730;SDS011;16639;51.488;0.152;2023-04-23T04:54:29;10.18;;;3.80;;
29730;SDS011;16639;51.488;0.152;2023-04-23T04:56:56;9.23;;;3.15;;
29730;SDS011;16639;51.488;0.152;2023-04-23T04:59:23;15.02;;;3.92;;
29730;SDS011;16639;51.488;0.152;2023-04-23T05:01:51;10.75;;;3.83;;
29730;SDS011;16639;51.488;0.152;2023-04-23T05:04:18;15.20;;;4.25;;
29730;SDS011;16639;51.488;0.152;2023-04-23T05:06:46;14.32;;;3.30;;
29730;SDS011;16639;51.488;0.152;2023-04-23T05:09:13;17.55;;;4.10;;
29730;SDS011;16639;51.488;0.152;2023-04-23T05:11:41;5.95;;;3.13;;
29730;SDS011;16639;51.488;0.152;2023-04-23T05:14:08;16.98;;;4.00;;
29730;SDS011;16639;51.488;0.152;2023-04-23T05:16:36;15.23;;;3.70;;
29730;SDS011;16639;51.488;0.152;2023-04-23T05:19:03;14.15;;;4.10;;
29730;SDS011;16639;51.488;0.152;2023-04-23T05:21:32;10.82;;;3.85;;
29730;SDS011;16639;51.488;0.152;2023-04-23T05:23:59;18.20;;;4.63;;
29730;SDS011;16639;51.488;0.152;2023-04-23T05:26:27;18.23;;;4.25;;
29730;SDS011;16639;51.488;0.152;2023-04-23T05:28:54;9.77;;;4.28;;
29730;SDS011;16639;51.488;0.152;2023-04-23T05:31:21;24.85;;;4.38;;
29730;SDS011;16639;51.488;0.152;2023-04-23T05:33:48;12.55;;;3.45;;
29730;SDS011;16639;51.488;0.152;2023-04-23T05:36:16;18.13;;;4.00;;
29730;SDS011;16639;51.488;0.152;2023-04-23T05:38:44;15.20;;;4.53;;
29730;SDS011;16639;51.488;0.152;2023-04-23T05:41:12;13.05;;;3.88;;
29730;SDS011;16639;51.488;0.152;2023-04-23T05:43:39;13.57;;;3.55;;
29730;SDS011;16639;51.488;0.152;2023-04-23T05:46:07;12.60;;;3.80;;
29730;SDS011;16639;51.488;0.152;2023-04-23T05:48:34;13.88;;;3.67;;
29730;SDS011;16639;51.488;0.152;2023-04-23T05:51:01;17.15;;;3.67;;
29730;SDS011;16639;51.488;0.152;2023-04-23T05:53:29;15.25;;;3.67;;
29730;SDS011;16639;51.488;0.152;2023-04-23T05:55:56;16.48;;;5.30;;
29730;SDS011;16639;51.488;0.152;2023-04-23T05:58:23;13.45;;;3.80;;
29730;SDS011;16639;51.488;0.152;2023-04-23T06:00:51;13.25;;;4.03;;
29730;SDS011;16639;51.488;0.152;2023-04-23T06:03:19;12.32;;;3.60;;
29730;SDS011;16639;51.488;0.152;2023-04-23T06:05:47;24.85;;;4.35;;
29730;SDS011;16639;51.488;0.152;2023-04-23T06:08:14;17.75;;;4.22;;
29730;SDS011;16639;51.488;0.152;2023-04-23T06:10:42;22.38;;;3.50;;
29730;SDS011;16639;51.488;0.152;2023-04-23T06:13:09;15.73;;;3.85;;
29730;SDS011;16639;51.488;0.152;2023-04-23T06:15:37;16.48;;;3.80;;
29730;SDS011;16639;51.488;0.152;2023-04-23T06:18:04;16.23;;;3.67;;
29730;SDS011;16639;51.488;0.152;2023-04-23T06:20:32;13.75;;;4.10;;
29730;SDS011;16639;51.488;0.152;2023-04-23T06:22:59;8.20;;;2.95;;
29730;SDS011;16639;51.488;0.152;2023-04-23T06:25:28;11.20;;;3.60;;
29730;SDS011;16639;51.488;0.152;2023-04-23T06:27:55;12.90;;;3.20;;
29730;SDS011;16639;51.488;0.152;2023-04-23T06:30:23;12.82;;;3.78;;
29730;SDS011;16639;51.488;0.152;2023-04-23T06:32:51;11.77;;;3.50;;
29730;SDS011;16639;51.488;0.152;2023-04-23T06:35:18;16.58;;;4.25;;
29730;SDS011;16639;51.488;0.152;2023-04-23T06:37:46;20.63;;;3.70;;
29730;SDS011;16639;51.488;0.152;2023-04-23T06:40:13;7.75;;;3.47;;
29730;SDS011;16639;51.488;0.152;2023-04-23T06:42:41;12.85;;;3.05;;
29730;SDS011;16639;51.488;0.152;2023-04-23T06:45:09;9.38;;;2.72;;
29730;SDS011;16639;51.488;0.152;2023-04-23T06:47:37;15.43;;;4.00;;
29730;SDS011;16639;51.488;0.152;2023-04-23T06:50:04;15.35;;;3.53;;
29730;SDS011;16639;51.488;0.152;2023-04-23T06:52:33;12.48;;;3.10;;
29730;SDS011;16639;51.488;0.152;2023-04-23T06:55:00;7.72;;;3.28;;
29730;SDS011;16639;51.488;0.152;2023-04-23T06:57:27;8.88;;;3.35;;
29730;SDS011;16639;51.488;0.152;2023-04-23T06:59:55;8.43;;;2.75;;
29730;SDS011;16639;51.488;0.152;2023-04-23T07:02:22;6.55;;;2.45;;
29730;SDS011;16639;51.488;0.152;2023-04-23T07:04:49;10.35;;;3.63;;
29730;SDS011;16639;51.488;0.152;2023-04-23T07:07:17;9.10;;;2.90;;
29730;SDS011;16639;51.488;0.152;2023-04-23T07:09:44;15.02;;;3.15;;
29730;SDS011;16639;51.488;0.152;2023-04-23T07:12:12;11.18;;;3.47;;
29730;SDS011;16639;51.488;0.152;2023-04-23T07:14:39;7.35;;;2.88;;
29730;SDS011;16639;51.488;0.152;2023-04-23T07:17:07;17.85;;;2.90;;
29730;SDS011;16639;51.488;0.152;2023-04-23T07:19:34;13.15;;;3.45;;
29730;SDS011;16639;51.488;0.152;2023-04-23T07:22:02;8.60;;;2.80;;
29730;SDS011;16639;51.488;0.152;2023-04-23T07:24:29;17.83;;;3.53;;
29730;SDS011;16639;51.488;0.152;2023-04-23T07:26:56;13.57;;;3.20;;
29730;SDS011;16639;51.488;0.152;2023-04-23T07:29:25;8.70;;;2.80;;
29730;SDS011;16639;51.488;0.152;2023-04-23T07:31:53;12.43;;;3.05;;
29730;SDS011;16639;51.488;0.152;2023-04-23T07:34:22;9.77;;;3.22;;
29730;SDS011;16639;51.488;0.152;2023-04-23T07:36:50;9.75;;;3.10;;
29730;SDS011;16639;51.488;0.152;2023-04-23T07:39:17;11.45;;;2.92;;
29730;SDS011;16639;51.488;0.152;2023-04-23T07:41:45;11.65;;;3.45;;
29730;SDS011;16639;51.488;0.152;2023-04-23T07:44:12;16.05;;;3.25;;
29730;SDS011;16639;51.488;0.152;2023-04-23T07:46:40;11.30;;;4.18;;
29730;SDS011;16639;51.488;0.152;2023-04-23T07:49:07;6.47;;;2.75;;
29730;SDS011;16639;51.488;0.152;2023-04-23T07:51:35;12.88;;;3.45;;
29730;SDS011;16639;51.488;0.152;2023-04-23T07:54:02;12.50;;;3.40;;
29730;SDS011;16639;51.488;0.152;2023-04-23T07:56:30;10.65;;;3.42;;
29730;SDS011;16639;51.488;0.152;2023-04-23T07:58:58;9.73;;;3.03;;
29730;SDS011;16639;51.488;0.152;2023-04-23T08:01:26;6.93;;;2.45;;
29730;SDS011;16639;51.488;0.152;2023-04-23T08:03:53;8.60;;;3.72;;
29730;SDS011;16639;51.488;0.152;2023-04-23T08:06:26;8.18;;;3.53;;
29730;SDS011;16639;51.488;0.152;2023-04-23T08:08:56;11.00;;;3.58;;
29730;SDS011;16639;51.488;0.152;2023-04-23T08:11:23;5.55;;;2.53;;
29730;SDS011;16639;51.488;0.152;2023-04-23T08:13:50;8.38;;;2.50;;
29730;SDS011;16639;51.488;0.152;2023-04-23T08:16:18;13.82;;;3.22;;
29730;SDS011;16639;51.488;0.152;2023-04-23T08:18:45;8.05;;;2.42;;
29730;SDS011;16639;51.488;0.152;2023-04-23T08:21:30;10.63;;;2.83;;
29730;SDS011;16639;51.488;0.152;2023-04-23T08:23:58;6.70;;;3.03;;
29730;SDS011;16639;51.488;0.152;2023-04-23T08:26:25;9.88;;;2.47;;
29730;SDS011;16639;51.488;0.152;2023-04-23T08:28:53;3.85;;;2.25;;
29730;SDS011;16639;51.488;0.152;2023-04-23T08:31:20;15.15;;;3.92;;
29730;SDS011;16639;51.488;0.152;2023-04-23T08:33:53;10.77;;;2.83;;
29730;SDS011;16639;51.488;0.152;2023-04-23T08:36:20;4.10;;;2.58;;
29730;SDS011;16639;51.488;0.152;2023-04-23T08:38:48;15.40;;;3.85;;
29730;SDS011;16639;51.488;0.152;2023-04-23T08:41:17;6.53;;;3.08;;
29730;SDS011;16639;51.488;0.152;2023-04-23T08:46:27;9.80;;;3.38;;
29730;SDS011;16639;51.488;0.152;2023-04-23T08:48:58;17.23;;;4.05;;
29730;SDS011;16639;51.488;0.152;2023-04-23T08:51:28;8.00;;;3.47;;
29730;SDS011;16639;51.488;0.152;2023-04-23T08:53:57;13.77;;;3.40;;
29730;SDS011;16639;51.488;0.152;2023-04-23T08:56:30;16.38;;;4.43;;
29730;SDS011;16639;51.488;0.152;2023-04-23T08:58:58;9.95;;;3.40;;
29730;SDS011;16639;51.488;0.152;2023-04-23T09:01:29;10.73;;;3.83;;
29730;SDS011;16639;51.488;0.152;2023-04-23T09:03:59;15.45;;;3.45;;
29730;SDS011;16639;51.488;0.152;2023-04-23T09:06:28;9.23;;;3.13;;
29730;SDS011;16639;51.488;0.152;2023-04-23T09:08:57;10.65;;;3.25;;
29730;SDS011;16639;51.488;0.152;2023-04-23T09:11:26;13.30;;;3.95;;
29730;SDS011;16639;51.488;0.152;2023-04-23T09:13:55;9.15;;;3.17;;
29730;SDS011;16639;51.488;0.152;2023-04-23T09:16:22;12.65;;;3.17;;
29730;SDS011;16639;51.488;0.152;2023-04-23T09:18:50;16.27;;;5.13;;
29730;SDS011;16639;51.488;0.152;2023-04-23T09:21:18;8.10;;;2.90;;
29730;SDS011;16639;51.488;0.152;2023-04-23T09:23:49;14.38;;;3.35;;
29730;SDS011;16639;51.488;0.152;2023-04-23T09:26:20;13.07;;;3.92;;
29730;SDS011;16639;51.488;0.152;2023-04-23T09:28:49;13.25;;;3.40;;
29730;SDS011;16639;51.488;0.152;2023-04-23T09:31:20;6.13;;;3.42;;
29730;SDS011;16639;51.488;0.152;2023-04-23T09:33:50;16.13;;;4.60;;
29730;SDS011;16639;51.488;0.152;2023-04-23T09:36:22;11.02;;;3.10;;
29730;SDS011;16639;51.488;0.152;2023-04-23T09:38:50;20.20;;;4.10;;
29730;SDS011;16639;51.488;0.152;2023-04-23T09:41:23;11.13;;;3.78;;
29730;SDS011;16639;51.488;0.152;2023-04-23T09:43:53;11.98;;;3.75;;
29730;SDS011;16639;51.488;0.152;2023-04-23T09:49:19;22.02;;;4.07;;
29730;SDS011;16639;51.488;0.152;2023-04-23T09:51:47;14.63;;;4.53;;
29730;SDS011;16639;51.488;0.152;2023-04-23T09:54:17;16.48;;;3.75;;
29730;SDS011;16639;51.488;0.152;2023-04-23T09:56:49;7.72;;;3.35;;
29730;SDS011;16639;51.488;0.152;2023-04-23T09:59:25;8.70;;;2.77;;
29730;SDS011;16639;51.488;0.152;2023-04-23T10:02:03;15.35;;;2.60;;
29730;SDS011;16639;51.488;0.152;2023-04-23T10:04:32;9.18;;;2.30;;
29730;SDS011;16639;51.488;0.152;2023-04-23T10:07:02;16.55;;;2.80;;
29730;SDS011;16639;51.488;0.152;2023-04-23T10:09:44;5.40;;;2.25;;
29730;SDS011;16639;51.488;0.152;2023-04-23T10:12:12;8.48;;;3.03;;
29730;SDS011;16639;51.488;0.152;2023-04-23T10:14:43;17.23;;;3.33;;
29730;SDS011;16639;51.488;0.152;2023-04-23T10:17:12;8.82;;;3.05;;
29730;SDS011;16639;51.488;0.152;2023-04-23T10:19:39;7.75;;;2.85;;
29730;SDS011;16639;51.488;0.152;2023-04-23T10:22:09;5.32;;;2.53;;
29730;SDS011;16639;51.488;0.152;2023-04-23T10:24:41;6.60;;;2.65;;
29730;SDS011;16639;51.488;0.152;2023-04-23T10:27:15;6.18;;;2.67;;
29730;SDS011;16639;51.488;0.152;2023-04-23T10:30:03;9.90;;;3.50;;
29730;SDS011;16639;51.488;0.152;2023-04-23T10:32:33;11.63;;;4.47;;
29730;SDS011;16639;51.488;0.152;2023-04-23T10:35:01;9.07;;;4.20;;
29730;SDS011;16639;51.488;0.152;2023-04-23T10:37:28;9.02;;;4.57;;
29730;SDS011;16639;51.488;0.152;2023-04-23T10:39:58;14.40;;;4.25;;
29730;SDS011;16639;51.488;0.152;2023-04-23T10:42:35;8.40;;;4.95;;
29730;SDS011;16639;51.488;0.152;2023-04-23T10:45:06;8.85;;;4.63;;
29730;SDS011;16639;51.488;0.152;2023-04-23T10:47:50;7.63;;;3.90;;
29730;SDS011;16639;51.488;0.152;2023-04-23T10:50:24;7.93;;;4.35;;
29730;SDS011;16639;51.488;0.152;2023-04-23T10:52:53;8.82;;;4.82;;
29730;SDS011;16639;51.488;0.152;2023-04-23T10:55:27;15.60;;;5.70;;
29730;SDS011;16639;51.488;0.152;2023-04-23T10:58:05;11.68;;;4.28;;
29730;SDS011;16639;51.488;0.152;2023-04-23T11:00:43;8.00;;;4.50;;
29730;SDS011;16639;51.488;0.152;2023-04-23T11:03:32;7.88;;;4.35;;
29730;SDS011;16639;51.488;0.152;2023-04-23T11:08:51;11.93;;;4.20;;
29730;SDS011;16639;51.488;0.152;2023-04-23T11:11:38;11.05;;;4.63;;
29730;SDS011;16639;51.488;0.152;2023-04-23T11:14:10;13.07;;;9.43;;
29730;SDS011;16639;51.488;0.152;2023-04-23T11:16:42;9.23;;;5.90;;
29730;SDS011;16639;51.488;0.152;2023-04-23T11:19:11;12.27;;;6.10;;
29730;SDS011;16639;51.488;0.152;2023-04-23T11:24:30;15.73;;;7.97;;
29730;SDS011;16639;51.488;0.152;2023-04-23T11:27:00;11.85;;;5.40;;
29730;SDS011;16639;51.488;0.152;2023-04-23T11:29:28;11.70;;;6.53;;
29730;SDS011;16639;51.488;0.152;2023-04-23T11:31:56;7.97;;;5.20;;
29730;SDS011;16639;51.488;0.152;2023-04-23T11:34:30;7.82;;;6.03;;
29730;SDS011;16639;51.488;0.152;2023-04-23T11:36:58;10.98;;;6.65;;
29730;SDS011;16639;51.488;0.152;2023-04-23T11:39:27;10.57;;;6.10;;
29730;SDS011;16639;51.488;0.152;2023-04-23T11:41:54;10.93;;;6.40;;
29730;SDS011;16639;51.488;0.152;2023-04-23T11:44:23;8.95;;;6.30;;
29730;SDS011;16639;51.488;0.152;2023-04-23T11:46:51;10.13;;;7.28;;
29730;SDS011;16639;51.488;0.152;2023-04-23T11:49:19;7.72;;;5.10;;
29730;SDS011;16639;51.488;0.152;2023-04-23T11:51:47;13.50;;;6.30;;
29730;SDS011;16639;51.488;0.152;2023-04-23T11:54:15;12.93;;;5.72;;
29730;SDS011;16639;51.488;0.152;2023-04-23T11:56:42;8.15;;;5.55;;
29730;SDS011;16639;51.488;0.152;2023-04-23T11:59:10;11.07;;;5.97;;
29730;SDS011;16639;51.488;0.152;2023-04-23T12:01:41;7.90;;;5.35;;
29730;SDS011;16639;51.488;0.152;2023-04-23T12:04:17;10.88;;;4.93;;
29730;SDS011;16639;51.488;0.152;2023-04-23T12:06:47;6.78;;;3.53;;
29730;SDS011;16639;51.488;0.152;2023-04-23T12:09:16;10.60;;;5.85;;
29730;SDS011;16639;51.488;0.152;2023-04-23T12:11:47;13.30;;;5.70;;
29730;SDS011;16639;51.488;0.152;2023-04-23T12:14:19;8.60;;;4.03;;
29730;SDS011;16639;51.488;0.152;2023-04-23T12:16:54;3.07;;;2.13;;
29730;SDS011;16639;51.488;0.152;2023-04-23T12:19:26;8.38;;;4.10;;
29730;SDS011;16639;51.488;0.152;2023-04-23T12:21:56;9.55;;;3.45;;
29730;SDS011;16639;51.488;0.152;2023-04-23T12:24:29;5.97;;;4.03;;
29730;SDS011;16639;51.488;0.152;2023-04-23T12:26:59;6.15;;;3.70;;
29730;SDS011;16639;51.488;0.152;2023-04-23T12:29:29;6.25;;;3.88;;
29730;SDS011;16639;51.488;0.152;2023-04-23T12:31:57;3.42;;;2.92;;
29730;SDS011;16639;51.488;0.152;2023-04-23T12:34:26;6.38;;;2.75;;
29730;SDS011;16639;51.488;0.152;2023-04-23T12:36:54;4.80;;;3.28;;
29730;SDS011;16639;51.488;0.152;2023-04-23T12:42:01;6.03;;;2.90;;
29730;SDS011;16639;51.488;0.152;2023-04-23T12:44:31;8.02;;;3.50;;
29730;SDS011;16639;51.488;0.152;2023-04-23T12:47:03;3.33;;;2.45;;
29730;SDS011;16639;51.488;0.152;2023-04-23T12:49:34;3.10;;;2.47;;
29730;SDS011;16639;51.488;0.152;2023-04-23T12:52:05;5.35;;;2.30;;
29730;SDS011;16639;51.488;0.152;2023-04-23T12:54:33;5.70;;;2.88;;
29730;SDS011;16639;51.488;0.152;2023-04-23T12:57:06;3.67;;;2.40;;
29730;SDS011;16639;51.488;0.152;2023-04-23T12:59:35;7.05;;;3.22;;
29730;SDS011;16639;51.488;0.152;2023-04-23T13:02:03;5.40;;;2.90;;
29730;SDS011;16639;51.488;0.152;2023-04-23T13:04:33;4.53;;;3.25;;
29730;SDS011;16639;51.488;0.152;2023-04-23T13:07:01;4.85;;;3.75;;
29730;SDS011;16639;51.488;0.152;2023-04-23T13:09:29;4.88;;;3.53;;
29730;SDS011;16639;51.488;0.152;2023-04-23T13:11:57;6.40;;;4.43;;
29730;SDS011;16639;51.488;0.152;2023-04-23T13:14:26;5.20;;;4.10;;
29730;SDS011;16639;51.488;0.152;2023-04-23T13:16:54;7.18;;;4.82;;
29730;SDS011;16639;51.488;0.152;2023-04-23T13:19:23;5.88;;;4.72;;
29730;SDS011;16639;51.488;0.152;2023-04-23T13:21:54;7.43;;;4.85;;
29730;SDS011;16639;51.488;0.152;2023-04-23T13:24:22;6.38;;;4.60;;
29730;SDS011;16639;51.488;0.152;2023-04-23T13:26:49;5.57;;;3.88;;
29730;SDS011;16639;51.488;0.152;2023-04-23T13:29:16;7.13;;;5.10;;
29730;SDS011;16639;51.488;0.152;2023-04-23T13:31:44;6.53;;;5.10;;
29730;SDS011;16639;51.488;0.152;2023-04-23T13:34:11;6.57;;;4.88;;
29730;SDS011;16639;51.488;0.152;2023-04-23T13:36:47;9.67;;;5.50;;
29730;SDS011;16639;51.488;0.152;2023-04-23T13:39:17;8.02;;;4.93;;
29730;SDS011;16639;51.488;0.152;2023-04-23T13:41:45;7.63;;;5.30;;
29730;SDS011;16639;51.488;0.152;2023-04-23T13:44:29;6.78;;;4.63;;
29730;SDS011;16639;51.488;0.152;2023-04-23T13:46:57;7.97;;;4.97;;
29730;SDS011;16639;51.488;0.152;2023-04-23T13:49:25;7.20;;;4.40;;
29730;SDS011;16639;51.488;0.152;2023-04-23T13:51:53;4.90;;;3.85;;
29730;SDS011;16639;51.488;0.152;2023-04-23T13:54:25;8.77;;;4.43;;
29730;SDS011;16639;51.488;0.152;2023-04-23T13:56:55;7.20;;;4.43;;
29730;SDS011;16639;51.488;0.152;2023-04-23T13:59:24;7.55;;;4.72;;
29730;SDS011;16639;51.488;0.152;2023-04-23T14:01:52;9.35;;;5.28;;
29730;SDS011;16639;51.488;0.152;2023-04-23T14:04:19;6.13;;;4.88;;
29730;SDS011;16639;51.488;0.152;2023-04-23T14:06:50;11.88;;;6.10;;
29730;SDS011;16639;51.488;0.152;2023-04-23T14:09:17;7.63;;;5.95;;
29730;SDS011;16639;51.488;0.152;2023-04-23T14:11:45;10.02;;;6.85;;
29730;SDS011;16639;51.488;0.152;2023-04-23T14:14:12;10.25;;;6.75;;
29730;SDS011;16639;51.488;0.152;2023-04-23T14:16:39;9.68;;;6.72;;
29730;SDS011;16639;51.488;0.152;2023-04-23T14:19:07;10.05;;;7.47;;
29730;SDS011;16639;51.488;0.152;2023-04-23T14:21:34;9.07;;;7.68;;
29730;SDS011;16639;51.488;0.152;2023-04-23T14:24:08;8.48;;;6.00;;
29730;SDS011;16639;51.488;0.152;2023-04-23T14:26:49;6.65;;;5.47;;
29730;SDS011;16639;51.488;0.152;2023-04-23T14:29:22;15.80;;;8.55;;
29730;SDS011;16639;51.488;0.152;2023-04-23T14:31:56;7.43;;;5.50;;
29730;SDS011;16639;51.488;0.152;2023-04-23T14:34:23;8.30;;;5.10;;
29730;SDS011;16639;51.488;0.152;2023-04-23T14:36:50;9.25;;;4.68;;
29730;SDS011;16639;51.488;0.152;2023-04-23T14:39:20;8.80;;;3.95;;
29730;SDS011;16639;51.488;0.152;2023-04-23T14:41:50;5.22;;;3.50;;
29730;SDS011;16639;51.488;0.152;2023-04-23T14:44:22;4.10;;;3.50;;
29730;SDS011;16639;51.488;0.152;2023-04-23T14:46:51;3.28;;;2.97;;
29730;SDS011;16639;51.488;0.152;2023-04-23T14:49:18;4.45;;;3.10;;
29730;SDS011;16639;51.488;0.152;2023-04-23T14:51:47;5.45;;;3.35;;
29730;SDS011;16639;51.488;0.152;2023-04-23T14:54:21;4.05;;;3.28;;
29730;SDS011;16639;51.488;0.152;2023-04-23T14:56:49;4.55;;;3.40;;
29730;SDS011;16639;51.488;0.152;2023-04-23T14:59:17;3.80;;;3.38;;
29730;SDS011;16639;51.488;0.152;2023-04-23T15:01:44;5.15;;;3.67;;
29730;SDS011;16639;51.488;0.152;2023-04-23T15:04:12;4.78;;;3.97;;
29730;SDS011;16639;51.488;0.152;2023-04-23T15:06:41;9.82;;;5.63;;